Portada
METAR-TAF:

METAR-TAF

Aeropuertos :

Aeropuerto de Budapest-Ferenc Liszt

Budapest, Hungría

latitud: 47-26N, longitud: 019-16E, altitud: 151 m

Observación

El informe se hizo hace 28 minutos, a las 21:30 UTC
Viento 10 kt del sur
Temperatura 7°C
Humedad 76%
Presión 1011 hPa
Visibilidad 10 km o más
sin nubes por debajo de 1500 m y sin presencia de cumulonimbus.

METAR: LHBP 212130Z 18010KT CAVOK 07/03 Q1011 NOSIG

Hora: 22:58 (21:58 UTC)

Pronóstico

El informe se hizo hace 4 horas y 43 minutos, a las 17:15 UTC
Pronóstico válido del 21 a las 18 UTC al 22 a las 18 UTC
Viento 10 kt del sur
Visibilidad 10 km o más
sin nubes por debajo de 1500 m y sin presencia de cumulonimbus.
Temporalmente
del 21 a las 18 UTC al 21 a las 24 UTC
Viento 5 kt del sur-sureste
Temporalmente
del 22 a las 09 UTC al 22 a las 15 UTC
lluvia ligera

TAF: LHBP 211715Z 2118/2218 18010KT CAVOK TEMPO 2118/2124 15005KT TEMPO 2209/2215 -RA

Observaciones y pronósticos meteorológicos de más de 4000 aeropuertos (mensajes METAR y TAF).

Los puntos amarillos y rojos representan las estaciones disponibles.

Ponga el ratón en el punto deseado para ver el nombre de la estación.

Haga clic para ver las observaciones y los pronósticos meteorológicos.

Para cambiar el mapa : haga clic en los botones verdes con una cruz de color negro para hacer un zoom, en el botón verde con un guión para alejar o en las flechas verdes para mapas adyacentes.


METAR-TAF: